CheckWX is a tool to help pilots better visualize weather data.  It is not intended as a substitute for an official pre-flight weather briefing.

09:19:46 UTC

KBRL TAF
Southeast Iowa Regional Airport
Burlington, Iowa, USA
KBRL 230520Z 2306/2406 33004KT P6SM FEW050

Jul-23@
06:00 UTC

Jul-23 @ 06:00 UTC

Jul-24@
06:00 UTC

Jul-24 @ 06:00 UTC

KBRL 230520Z 2306/2406 33004KT P6SM FEW050
Wind
  • 330° at 4 KTS
Cloud Levels
  • Few at 5,000' AGL